Windsor Locks, CT (06096)

9:06 AM EDT on June 03, 2015 (GMT -0400)
Rainbow | | Change Station
CLOSE
Current Station
Personal Weather Station
Location: Windsor, CT
Elevation: 155 ft
Nearby Weather Stations

Elev 155 ft 41.92 °N, 72.70 °W | Updated 15 seconds ago

Mostly Cloudy
Mostly Cloudy
51.4 °F
Feels Like 51.4 °F
N
0.7
Wind Variable Wind from ENE
Gusts 1.6 mph

Today
High -- | Low -- °F
--% Chance of Precip.
Yesterday
High -- | Low -- °F
Precip. -- in
5:17 AM 8:20 PM
Full, 99% visible
Pressure 30.24 in
Visibility 10.0 miles
Clouds Few 1000 ft
Mostly Cloudy 25000 ft
Dew Point 51 °F
Humidity 99%
Rainfall 0.00 in
Snow Depth Not available.
UV 3 out of 12
Pollen 8.10 out of 12
Air Quality Not available.
Flu Activity Local Activity
METAR KBDL 031251Z 02007KT 10SM FEW010 BKN250 12/08 A3024 RMK AO2 SLP240 T01220078

More Conditions Fewer Conditions

Pressure 30.24 in
Visibility 10.0 miles
Clouds Few 1000 ft
Mostly Cloudy 25000 ft
Dew Point 51 °F
Humidity 99%
Rainfall 0.00 in
Snow Depth Not available.
UV 3 out of 12
Pollen 8.10 out of 12
Air Quality Not available.
Flu Activity Local Activity
METAR KBDL 031251Z 02007KT 10SM FEW010 BKN250 12/08 A3024 RMK AO2 SLP240 T01220078

More Conditions Fewer Conditions

10-Day Weather Forecast

×

Almanac

Astronomy

Jun. 03, 2015 Rise Set
Actual Time
Civil Twilight
Nautical Twilight
Astronomical Twilight
Moon
Length of Visible Light
Length of Day
Tomorrow will be .
, % of the Moon is Illuminated

Today's Extremes

State Highs State Lows

Community

WunderPhotos

Upload Photos

1,826,211 photos uploaded!

WunderBlogs® & News

Nearby

Air Quality

  Air Quality AQ Index Pollutant
Not available.

Snow Depth

Station Depth Elevation

Earthquake Activity

City Distance Mag. Time & Date
Minimum magnitude displayed is 2.5.

Coastal Water Temperatures

Place Temperature

Stations

Nearby Weather Stations

Station Location Temp. Windchill Dew Point Humidity Wind Precip. Elev Updated Type